sensor_id;sensor_type;location;lat;lon;timestamp;P1;durP1;ratioP1;P2;durP2;ratioP2
37411;SDS011;23278;52.110;6.050;2023-04-25T00:01:44;8.07;;;2.33;;
37411;SDS011;23278;52.110;6.050;2023-04-25T00:04:10;8.15;;;1.98;;
37411;SDS011;23278;52.110;6.050;2023-04-25T00:06:36;6.57;;;2.00;;
37411;SDS011;23278;52.110;6.050;2023-04-25T00:09:03;4.78;;;1.70;;
37411;SDS011;23278;52.110;6.050;2023-04-25T00:11:33;8.18;;;2.45;;
37411;SDS011;23278;52.110;6.050;2023-04-25T00:13:59;7.40;;;1.65;;
37411;SDS011;23278;52.110;6.050;2023-04-25T00:16:27;11.05;;;1.75;;
37411;SDS011;23278;52.110;6.050;2023-04-25T00:18:54;9.63;;;1.90;;
37411;SDS011;23278;52.110;6.050;2023-04-25T00:21:20;10.75;;;1.70;;
37411;SDS011;23278;52.110;6.050;2023-04-25T00:23:46;8.40;;;1.77;;
37411;SDS011;23278;52.110;6.050;2023-04-25T00:26:12;8.82;;;1.80;;
37411;SDS011;23278;52.110;6.050;2023-04-25T00:28:39;7.00;;;2.00;;
37411;SDS011;23278;52.110;6.050;2023-04-25T00:31:05;9.18;;;3.30;;
37411;SDS011;23278;52.110;6.050;2023-04-25T00:33:31;4.32;;;1.50;;
37411;SDS011;23278;52.110;6.050;2023-04-25T00:35:57;9.75;;;2.08;;
37411;SDS011;23278;52.110;6.050;2023-04-25T00:38:23;6.00;;;2.15;;
37411;SDS011;23278;52.110;6.050;2023-04-25T00:40:49;6.80;;;1.50;;
37411;SDS011;23278;52.110;6.050;2023-04-25T00:43:15;14.82;;;4.15;;
37411;SDS011;23278;52.110;6.050;2023-04-25T00:45:41;10.52;;;1.88;;
37411;SDS011;23278;52.110;6.050;2023-04-25T00:48:08;5.25;;;1.75;;
37411;SDS011;23278;52.110;6.050;2023-04-25T00:50:35;5.80;;;1.90;;
37411;SDS011;23278;52.110;6.050;2023-04-25T00:53:02;4.80;;;1.65;;
37411;SDS011;23278;52.110;6.050;2023-04-25T00:55:28;7.63;;;1.70;;
37411;SDS011;23278;52.110;6.050;2023-04-25T00:57:56;7.82;;;1.77;;
37411;SDS011;23278;52.110;6.050;2023-04-25T01:00:23;9.40;;;3.05;;
37411;SDS011;23278;52.110;6.050;2023-04-25T01:02:49;12.65;;;2.63;;
37411;SDS011;23278;52.110;6.050;2023-04-25T01:05:15;11.43;;;2.47;;
37411;SDS011;23278;52.110;6.050;2023-04-25T01:07:41;7.57;;;2.63;;
37411;SDS011;23278;52.110;6.050;2023-04-25T01:10:07;7.57;;;2.90;;
37411;SDS011;23278;52.110;6.050;2023-04-25T01:12:34;8.85;;;2.70;;
37411;SDS011;23278;52.110;6.050;2023-04-25T01:15:00;8.43;;;2.05;;
37411;SDS011;23278;52.110;6.050;2023-04-25T01:17:26;11.70;;;2.53;;
37411;SDS011;23278;52.110;6.050;2023-04-25T01:19:53;5.97;;;1.40;;
37411;SDS011;23278;52.110;6.050;2023-04-25T01:22:19;9.75;;;3.15;;
37411;SDS011;23278;52.110;6.050;2023-04-25T01:24:46;12.50;;;3.30;;
37411;SDS011;23278;52.110;6.050;2023-04-25T01:27:12;14.82;;;3.63;;
37411;SDS011;23278;52.110;6.050;2023-04-25T01:29:38;14.27;;;2.70;;
37411;SDS011;23278;52.110;6.050;2023-04-25T01:32:05;17.00;;;2.90;;
37411;SDS011;23278;52.110;6.050;2023-04-25T01:34:32;11.73;;;2.25;;
37411;SDS011;23278;52.110;6.050;2023-04-25T01:36:59;14.38;;;2.55;;
37411;SDS011;23278;52.110;6.050;2023-04-25T01:39:27;13.73;;;3.13;;
37411;SDS011;23278;52.110;6.050;2023-04-25T01:41:53;10.27;;;2.30;;
37411;SDS011;23278;52.110;6.050;2023-04-25T01:44:20;12.73;;;3.08;;
37411;SDS011;23278;52.110;6.050;2023-04-25T01:46:47;11.20;;;3.30;;
37411;SDS011;23278;52.110;6.050;2023-04-25T01:49:13;10.48;;;2.90;;
37411;SDS011;23278;52.110;6.050;2023-04-25T01:51:40;9.05;;;3.25;;
37411;SDS011;23278;52.110;6.050;2023-04-25T01:54:07;13.93;;;3.05;;
37411;SDS011;23278;52.110;6.050;2023-04-25T01:56:36;22.33;;;5.15;;
37411;SDS011;23278;52.110;6.050;2023-04-25T01:59:05;15.43;;;2.75;;
37411;SDS011;23278;52.110;6.050;2023-04-25T02:01:50;12.80;;;3.38;;
37411;SDS011;23278;52.110;6.050;2023-04-25T02:04:24;14.65;;;3.88;;
37411;SDS011;23278;52.110;6.050;2023-04-25T02:06:50;10.57;;;2.58;;
37411;SDS011;23278;52.110;6.050;2023-04-25T02:09:16;8.98;;;3.60;;
37411;SDS011;23278;52.110;6.050;2023-04-25T02:11:47;8.30;;;3.80;;
37411;SDS011;23278;52.110;6.050;2023-04-25T02:14:31;12.98;;;3.08;;
37411;SDS011;23278;52.110;6.050;2023-04-25T02:17:09;14.23;;;4.43;;
37411;SDS011;23278;52.110;6.050;2023-04-25T02:19:37;13.65;;;3.40;;
37411;SDS011;23278;52.110;6.050;2023-04-25T02:22:03;8.52;;;2.35;;
37411;SDS011;23278;52.110;6.050;2023-04-25T02:24:29;16.95;;;2.78;;
37411;SDS011;23278;52.110;6.050;2023-04-25T02:26:57;10.05;;;2.85;;
37411;SDS011;23278;52.110;6.050;2023-04-25T02:29:22;5.28;;;2.15;;
37411;SDS011;23278;52.110;6.050;2023-04-25T02:31:48;11.20;;;3.10;;
37411;SDS011;23278;52.110;6.050;2023-04-25T02:34:16;12.52;;;2.35;;
37411;SDS011;23278;52.110;6.050;2023-04-25T02:36:42;13.50;;;2.58;;
37411;SDS011;23278;52.110;6.050;2023-04-25T02:39:08;12.13;;;2.00;;
37411;SDS011;23278;52.110;6.050;2023-04-25T02:41:34;11.15;;;2.53;;
37411;SDS011;23278;52.110;6.050;2023-04-25T02:43:59;7.95;;;2.83;;
37411;SDS011;23278;52.110;6.050;2023-04-25T02:46:25;9.43;;;2.63;;
37411;SDS011;23278;52.110;6.050;2023-04-25T02:48:51;19.83;;;3.95;;
37411;SDS011;23278;52.110;6.050;2023-04-25T02:51:17;9.27;;;2.63;;
37411;SDS011;23278;52.110;6.050;2023-04-25T02:53:43;13.70;;;2.53;;
37411;SDS011;23278;52.110;6.050;2023-04-25T02:56:09;13.52;;;3.25;;
37411;SDS011;23278;52.110;6.050;2023-04-25T02:58:35;7.78;;;2.38;;
37411;SDS011;23278;52.110;6.050;2023-04-25T03:01:01;17.80;;;4.88;;
37411;SDS011;23278;52.110;6.050;2023-04-25T03:03:27;10.70;;;3.10;;
37411;SDS011;23278;52.110;6.050;2023-04-25T03:05:53;13.30;;;2.60;;
37411;SDS011;23278;52.110;6.050;2023-04-25T03:08:27;6.85;;;3.22;;
37411;SDS011;23278;52.110;6.050;2023-04-25T03:10:59;10.77;;;2.90;;
37411;SDS011;23278;52.110;6.050;2023-04-25T03:13:25;10.43;;;2.17;;
37411;SDS011;23278;52.110;6.050;2023-04-25T03:15:52;7.10;;;2.88;;
37411;SDS011;23278;52.110;6.050;2023-04-25T03:18:18;12.45;;;3.85;;
37411;SDS011;23278;52.110;6.050;2023-04-25T03:20:44;12.88;;;2.72;;
37411;SDS011;23278;52.110;6.050;2023-04-25T03:23:11;4.97;;;1.75;;
37411;SDS011;23278;52.110;6.050;2023-04-25T03:25:40;9.13;;;2.80;;
37411;SDS011;23278;52.110;6.050;2023-04-25T03:28:06;8.70;;;2.25;;
37411;SDS011;23278;52.110;6.050;2023-04-25T03:30:32;12.70;;;2.40;;
37411;SDS011;23278;52.110;6.050;2023-04-25T03:32:58;11.95;;;3.58;;
37411;SDS011;23278;52.110;6.050;2023-04-25T03:35:24;8.88;;;2.15;;
37411;SDS011;23278;52.110;6.050;2023-04-25T03:37:50;9.10;;;2.47;;
37411;SDS011;23278;52.110;6.050;2023-04-25T03:40:22;11.13;;;3.63;;
37411;SDS011;23278;52.110;6.050;2023-04-25T03:43:23;11.95;;;2.55;;
37411;SDS011;23278;52.110;6.050;2023-04-25T03:45:55;14.38;;;3.17;;
37411;SDS011;23278;52.110;6.050;2023-04-25T03:48:22;12.88;;;3.00;;
37411;SDS011;23278;52.110;6.050;2023-04-25T03:50:50;10.88;;;3.00;;
37411;SDS011;23278;52.110;6.050;2023-04-25T03:53:16;11.20;;;2.30;;
37411;SDS011;23278;52.110;6.050;2023-04-25T03:56:00;6.72;;;2.30;;
37411;SDS011;23278;52.110;6.050;2023-04-25T03:58:26;7.28;;;1.98;;
37411;SDS011;23278;52.110;6.050;2023-04-25T04:00:52;9.88;;;2.97;;
37411;SDS011;23278;52.110;6.050;2023-04-25T04:03:18;5.55;;;2.38;;
37411;SDS011;23278;52.110;6.050;2023-04-25T04:05:44;9.90;;;2.30;;
37411;SDS011;23278;52.110;6.050;2023-04-25T04:08:10;7.55;;;2.55;;
37411;SDS011;23278;52.110;6.050;2023-04-25T04:10:38;6.00;;;2.15;;
37411;SDS011;23278;52.110;6.050;2023-04-25T04:13:04;10.10;;;2.92;;
37411;SDS011;23278;52.110;6.050;2023-04-25T04:15:31;14.57;;;3.05;;
37411;SDS011;23278;52.110;6.050;2023-04-25T04:17:58;9.50;;;2.83;;
37411;SDS011;23278;52.110;6.050;2023-04-25T04:20:28;6.97;;;2.58;;
37411;SDS011;23278;52.110;6.050;2023-04-25T04:22:56;11.05;;;2.28;;
37411;SDS011;23278;52.110;6.050;2023-04-25T04:25:23;12.02;;;2.20;;
37411;SDS011;23278;52.110;6.050;2023-04-25T04:28:12;6.05;;;2.40;;
37411;SDS011;23278;52.110;6.050;2023-04-25T04:31:01;8.75;;;2.15;;
37411;SDS011;23278;52.110;6.050;2023-04-25T04:33:29;7.55;;;2.42;;
37411;SDS011;23278;52.110;6.050;2023-04-25T04:36:00;12.68;;;2.65;;
37411;SDS011;23278;52.110;6.050;2023-04-25T04:38:27;8.95;;;3.15;;
37411;SDS011;23278;52.110;6.050;2023-04-25T04:40:57;9.57;;;2.13;;
37411;SDS011;23278;52.110;6.050;2023-04-25T04:43:52;10.30;;;2.60;;
37411;SDS011;23278;52.110;6.050;2023-04-25T04:46:41;7.93;;;2.40;;
37411;SDS011;23278;52.110;6.050;2023-04-25T04:49:29;7.55;;;2.50;;
37411;SDS011;23278;52.110;6.050;2023-04-25T04:52:05;6.68;;;2.08;;
37411;SDS011;23278;52.110;6.050;2023-04-25T04:54:49;7.82;;;1.48;;
37411;SDS011;23278;52.110;6.050;2023-04-25T04:57:44;6.90;;;1.38;;
37411;SDS011;23278;52.110;6.050;2023-04-25T05:00:31;6.20;;;1.95;;
37411;SDS011;23278;52.110;6.050;2023-04-25T05:03:16;5.20;;;1.50;;
37411;SDS011;23278;52.110;6.050;2023-04-25T05:06:08;8.32;;;1.48;;
37411;SDS011;23278;52.110;6.050;2023-04-25T05:09:01;7.95;;;2.85;;
37411;SDS011;23278;52.110;6.050;2023-04-25T05:11:41;15.13;;;3.15;;
37411;SDS011;23278;52.110;6.050;2023-04-25T05:14:36;4.35;;;1.48;;
37411;SDS011;23278;52.110;6.050;2023-04-25T05:17:31;4.88;;;1.40;;
37411;SDS011;23278;52.110;6.050;2023-04-25T05:20:33;10.95;;;1.95;;
37411;SDS011;23278;52.110;6.050;2023-04-25T05:23:11;7.25;;;1.60;;
37411;SDS011;23278;52.110;6.050;2023-04-25T05:25:50;8.68;;;1.67;;
37411;SDS011;23278;52.110;6.050;2023-04-25T05:28:37;8.80;;;1.63;;
37411;SDS011;23278;52.110;6.050;2023-04-25T05:31:13;6.18;;;2.10;;
37411;SDS011;23278;52.110;6.050;2023-04-25T05:33:57;4.65;;;1.67;;
37411;SDS011;23278;52.110;6.050;2023-04-25T05:36:31;12.77;;;1.67;;
37411;SDS011;23278;52.110;6.050;2023-04-25T05:38:57;6.38;;;1.63;;
37411;SDS011;23278;52.110;6.050;2023-04-25T05:42:02;3.92;;;1.27;;
37411;SDS011;23278;52.110;6.050;2023-04-25T05:45:01;6.30;;;0.98;;
37411;SDS011;23278;52.110;6.050;2023-04-25T05:47:36;4.93;;;0.98;;
37411;SDS011;23278;52.110;6.050;2023-04-25T05:50:06;10.95;;;2.90;;
37411;SDS011;23278;52.110;6.050;2023-04-25T05:52:49;4.63;;;0.70;;
37411;SDS011;23278;52.110;6.050;2023-04-25T05:55:34;4.30;;;0.60;;
37411;SDS011;23278;52.110;6.050;2023-04-25T05:58:08;5.43;;;0.75;;
37411;SDS011;23278;52.110;6.050;2023-04-25T06:00:34;6.13;;;1.15;;
37411;SDS011;23278;52.110;6.050;2023-04-25T06:03:00;3.78;;;1.13;;
37411;SDS011;23278;52.110;6.050;2023-04-25T06:05:26;2.55;;;0.80;;
37411;SDS011;23278;52.110;6.050;2023-04-25T06:07:52;3.08;;;0.90;;
37411;SDS011;23278;52.110;6.050;2023-04-25T06:10:19;8.23;;;1.27;;
37411;SDS011;23278;52.110;6.050;2023-04-25T06:12:46;6.35;;;1.05;;
37411;SDS011;23278;52.110;6.050;2023-04-25T06:15:14;4.95;;;1.00;;
37411;SDS011;23278;52.110;6.050;2023-04-25T06:17:41;3.17;;;0.90;;
37411;SDS011;23278;52.110;6.050;2023-04-25T06:20:07;5.30;;;1.02;;
37411;SDS011;23278;52.110;6.050;2023-04-25T06:22:34;7.43;;;1.08;;
37411;SDS011;23278;52.110;6.050;2023-04-25T06:25:00;6.97;;;2.22;;
37411;SDS011;23278;52.110;6.050;2023-04-25T06:27:28;7.15;;;1.20;;
37411;SDS011;23278;52.110;6.050;2023-04-25T06:29:55;8.45;;;1.17;;
37411;SDS011;23278;52.110;6.050;2023-04-25T06:32:20;6.85;;;0.95;;
37411;SDS011;23278;52.110;6.050;2023-04-25T06:34:46;10.52;;;2.10;;
37411;SDS011;23278;52.110;6.050;2023-04-25T06:37:13;7.53;;;1.30;;
37411;SDS011;23278;52.110;6.050;2023-04-25T06:39:39;10.68;;;3.15;;
37411;SDS011;23278;52.110;6.050;2023-04-25T06:42:05;4.75;;;1.00;;
37411;SDS011;23278;52.110;6.050;2023-04-25T06:44:43;2.85;;;1.00;;
37411;SDS011;23278;52.110;6.050;2023-04-25T06:47:11;3.22;;;0.90;;
37411;SDS011;23278;52.110;6.050;2023-04-25T06:49:37;5.57;;;1.45;;
37411;SDS011;23278;52.110;6.050;2023-04-25T06:52:04;4.32;;;1.23;;
37411;SDS011;23278;52.110;6.050;2023-04-25T06:54:30;5.05;;;1.23;;
37411;SDS011;23278;52.110;6.050;2023-04-25T06:57:03;3.92;;;0.90;;
37411;SDS011;23278;52.110;6.050;2023-04-25T06:59:30;8.27;;;1.55;;
37411;SDS011;23278;52.110;6.050;2023-04-25T07:01:58;4.55;;;1.25;;
37411;SDS011;23278;52.110;6.050;2023-04-25T07:04:25;7.32;;;1.85;;
37411;SDS011;23278;52.110;6.050;2023-04-25T07:06:54;3.50;;;1.17;;
37411;SDS011;23278;52.110;6.050;2023-04-25T07:09:27;6.30;;;1.40;;
37411;SDS011;23278;52.110;6.050;2023-04-25T07:11:54;5.05;;;1.15;;
37411;SDS011;23278;52.110;6.050;2023-04-25T07:14:20;6.85;;;1.67;;
37411;SDS011;23278;52.110;6.050;2023-04-25T07:16:46;8.15;;;1.50;;
37411;SDS011;23278;52.110;6.050;2023-04-25T07:19:12;4.55;;;1.30;;
37411;SDS011;23278;52.110;6.050;2023-04-25T07:21:38;5.30;;;1.35;;
37411;SDS011;23278;52.110;6.050;2023-04-25T07:24:05;3.97;;;1.55;;
37411;SDS011;23278;52.110;6.050;2023-04-25T07:26:35;2.63;;;0.98;;
37411;SDS011;23278;52.110;6.050;2023-04-25T07:29:30;5.13;;;1.92;;
37411;SDS011;23278;52.110;6.050;2023-04-25T07:31:58;7.53;;;1.20;;
37411;SDS011;23278;52.110;6.050;2023-04-25T07:34:24;7.32;;;1.50;;
37411;SDS011;23278;52.110;6.050;2023-04-25T07:36:50;8.80;;;1.25;;
37411;SDS011;23278;52.110;6.050;2023-04-25T07:39:16;5.32;;;1.30;;
37411;SDS011;23278;52.110;6.050;2023-04-25T07:41:42;10.55;;;1.50;;
37411;SDS011;23278;52.110;6.050;2023-04-25T07:44:13;10.23;;;1.50;;
37411;SDS011;23278;52.110;6.050;2023-04-25T07:46:39;7.30;;;1.52;;
37411;SDS011;23278;52.110;6.050;2023-04-25T07:49:06;7.55;;;0.90;;
37411;SDS011;23278;52.110;6.050;2023-04-25T07:51:32;7.68;;;1.77;;
37411;SDS011;23278;52.110;6.050;2023-04-25T07:54:03;10.73;;;1.83;;
37411;SDS011;23278;52.110;6.050;2023-04-25T07:56:32;6.60;;;1.73;;
37411;SDS011;23278;52.110;6.050;2023-04-25T07:58:58;5.05;;;1.30;;
37411;SDS011;23278;52.110;6.050;2023-04-25T08:01:24;5.53;;;1.02;;
37411;SDS011;23278;52.110;6.050;2023-04-25T08:03:57;6.95;;;1.77;;
37411;SDS011;23278;52.110;6.050;2023-04-25T08:06:34;4.30;;;1.55;;
37411;SDS011;23278;52.110;6.050;2023-04-25T08:09:08;2.53;;;1.05;;
37411;SDS011;23278;52.110;6.050;2023-04-25T08:11:38;8.57;;;1.35;;
37411;SDS011;23278;52.110;6.050;2023-04-25T08:14:05;4.00;;;0.90;;
37411;SDS011;23278;52.110;6.050;2023-04-25T08:16:32;4.32;;;1.40;;
37411;SDS011;23278;52.110;6.050;2023-04-25T08:18:59;7.25;;;1.35;;
37411;SDS011;23278;52.110;6.050;2023-04-25T08:21:25;3.03;;;0.70;;
37411;SDS011;23278;52.110;6.050;2023-04-25T08:23:53;2.50;;;0.60;;
37411;SDS011;23278;52.110;6.050;2023-04-25T08:26:25;1.15;;;0.70;;
37411;SDS011;23278;52.110;6.050;2023-04-25T08:28:51;1.70;;;0.55;;
37411;SDS011;23278;52.110;6.050;2023-04-25T08:31:17;1.30;;;0.50;;
37411;SDS011;23278;52.110;6.050;2023-04-25T08:33:52;1.20;;;0.68;;
37411;SDS011;23278;52.110;6.050;2023-04-25T08:36:41;0.63;;;0.50;;
37411;SDS011;23278;52.110;6.050;2023-04-25T08:39:21;0.65;;;0.45;;
37411;SDS011;23278;52.110;6.050;2023-04-25T08:42:10;1.35;;;0.50;;
37411;SDS011;23278;52.110;6.050;2023-04-25T08:44:37;3.58;;;1.25;;
37411;SDS011;23278;52.110;6.050;2023-04-25T08:47:05;2.33;;;1.10;;
37411;SDS011;23278;52.110;6.050;2023-04-25T08:49:34;1.50;;;0.60;;
37411;SDS011;23278;52.110;6.050;2023-04-25T08:52:02;2.33;;;0.60;;
37411;SDS011;23278;52.110;6.050;2023-04-25T08:54:31;3.67;;;0.80;;
37411;SDS011;23278;52.110;6.050;2023-04-25T08:57:00;6.03;;;1.00;;
37411;SDS011;23278;52.110;6.050;2023-04-25T08:59:29;1.80;;;0.60;;
37411;SDS011;23278;52.110;6.050;2023-04-25T09:01:56;7.10;;;1.10;;
37411;SDS011;23278;52.110;6.050;2023-04-25T09:04:22;3.75;;;0.90;;
37411;SDS011;23278;52.110;6.050;2023-04-25T09:06:48;4.72;;;1.08;;
37411;SDS011;23278;52.110;6.050;2023-04-25T09:09:14;1.98;;;0.70;;
37411;SDS011;23278;52.110;6.050;2023-04-25T09:11:41;2.40;;;0.80;;
37411;SDS011;23278;52.110;6.050;2023-04-25T09:14:17;3.25;;;1.00;;
37411;SDS011;23278;52.110;6.050;2023-04-25T09:17:01;4.22;;;0.85;;
37411;SDS011;23278;52.110;6.050;2023-04-25T09:19:45;4.57;;;1.73;;
37411;SDS011;23278;52.110;6.050;2023-04-25T09:22:19;3.00;;;0.60;;
37411;SDS011;23278;52.110;6.050;2023-04-25T09:24:48;3.78;;;0.77;;
37411;SDS011;23278;52.110;6.050;2023-04-25T09:27:19;3.53;;;1.42;;
37411;SDS011;23278;52.110;6.050;2023-04-25T09:30:03;3.85;;;1.10;;
37411;SDS011;23278;52.110;6.050;2023-04-25T09:32:46;4.43;;;0.80;;
37411;SDS011;23278;52.110;6.050;2023-04-25T09:35:22;3.90;;;0.60;;
37411;SDS011;23278;52.110;6.050;2023-04-25T09:37:51;6.35;;;1.20;;
37411;SDS011;23278;52.110;6.050;2023-04-25T09:40:52;2.45;;;0.75;;
37411;SDS011;23278;52.110;6.050;2023-04-25T09:43:33;4.45;;;0.80;;
37411;SDS011;23278;52.110;6.050;2023-04-25T09:45:59;3.28;;;0.65;;
37411;SDS011;23278;52.110;6.050;2023-04-25T09:48:28;5.75;;;0.63;;
37411;SDS011;23278;52.110;6.050;2023-04-25T09:51:08;4.00;;;0.80;;
37411;SDS011;23278;52.110;6.050;2023-04-25T09:53:37;2.80;;;0.70;;
37411;SDS011;23278;52.110;6.050;2023-04-25T09:56:27;2.08;;;0.90;;
37411;SDS011;23278;52.110;6.050;2023-04-25T09:59:00;3.13;;;0.63;;
37411;SDS011;23278;52.110;6.050;2023-04-25T10:01:28;7.80;;;1.55;;
37411;SDS011;23278;52.110;6.050;2023-04-25T10:04:06;4.18;;;1.15;;
37411;SDS011;23278;52.110;6.050;2023-04-25T10:06:50;3.38;;;0.75;;
37411;SDS011;23278;52.110;6.050;2023-04-25T10:09:19;3.63;;;0.70;;
37411;SDS011;23278;52.110;6.050;2023-04-25T10:11:46;2.63;;;1.45;;
37411;SDS011;23278;52.110;6.050;2023-04-25T10:14:19;3.70;;;0.73;;
37411;SDS011;23278;52.110;6.050;2023-04-25T10:16:45;2.67;;;0.70;;
37411;SDS011;23278;52.110;6.050;2023-04-25T10:19:12;3.38;;;0.70;;
37411;SDS011;23278;52.110;6.050;2023-04-25T10:21:40;3.72;;;0.90;;
37411;SDS011;23278;52.110;6.050;2023-04-25T10:24:15;3.63;;;0.82;;
37411;SDS011;23278;52.110;6.050;2023-04-25T10:26:41;5.10;;;2.22;;
37411;SDS011;23278;52.110;6.050;2023-04-25T10:29:08;5.28;;;1.05;;
37411;SDS011;23278;52.110;6.050;2023-04-25T10:31:37;5.75;;;0.95;;
37411;SDS011;23278;52.110;6.050;2023-04-25T10:34:10;3.03;;;0.80;;
37411;SDS011;23278;52.110;6.050;2023-04-25T10:36:36;4.78;;;0.70;;
37411;SDS011;23278;52.110;6.050;2023-04-25T10:39:06;4.05;;;0.80;;
37411;SDS011;23278;52.110;6.050;2023-04-25T10:42:07;2.05;;;0.70;;
37411;SDS011;23278;52.110;6.050;2023-04-25T10:44:28;2.90;;;0.90;;
37411;SDS011;23278;52.110;6.050;2023-04-25T10:46:57;1.92;;;0.70;;
37411;SDS011;23278;52.110;6.050;2023-04-25T10:49:32;3.42;;;0.60;;
37411;SDS011;23278;52.110;6.050;2023-04-25T10:52:26;2.28;;;0.63;;
37411;SDS011;23278;52.110;6.050;2023-04-25T10:54:57;2.55;;;0.60;;
37411;SDS011;23278;52.110;6.050;2023-04-25T10:57:30;1.17;;;0.50;;
37411;SDS011;23278;52.110;6.050;2023-04-25T11:02:45;4.55;;;0.73;;
37411;SDS011;23278;52.110;6.050;2023-04-25T11:05:32;3.60;;;0.80;;
37411;SDS011;23278;52.110;6.050;2023-04-25T11:07:59;3.85;;;0.80;;
37411;SDS011;23278;52.110;6.050;2023-04-25T11:10:29;1.83;;;0.82;;
37411;SDS011;23278;52.110;6.050;2023-04-25T11:12:59;2.83;;;0.70;;
37411;SDS011;23278;52.110;6.050;2023-04-25T11:15:25;2.25;;;0.60;;
37411;SDS011;23278;52.110;6.050;2023-04-25T11:17:52;8.82;;;1.42;;
37411;SDS011;23278;52.110;6.050;2023-04-25T11:20:18;3.30;;;0.60;;
37411;SDS011;23278;52.110;6.050;2023-04-25T11:22:45;3.38;;;0.60;;
37411;SDS011;23278;52.110;6.050;2023-04-25T11:25:13;4.22;;;0.93;;
37411;SDS011;23278;52.110;6.050;2023-04-25T11:27:49;6.85;;;1.00;;
37411;SDS011;23278;52.110;6.050;2023-04-25T11:30:19;2.85;;;1.00;;
37411;SDS011;23278;52.110;6.050;2023-04-25T11:32:46;1.70;;;0.70;;
37411;SDS011;23278;52.110;6.050;2023-04-25T11:35:13;4.63;;;0.70;;
37411;SDS011;23278;52.110;6.050;2023-04-25T11:37:39;2.70;;;0.57;;
37411;SDS011;23278;52.110;6.050;2023-04-25T11:40:05;1.73;;;0.57;;
37411;SDS011;23278;52.110;6.050;2023-04-25T11:42:33;1.67;;;0.60;;
37411;SDS011;23278;52.110;6.050;2023-04-25T11:44:59;3.95;;;1.20;;
37411;SDS011;23278;52.110;6.050;2023-04-25T11:47:29;3.72;;;0.98;;
37411;SDS011;23278;52.110;6.050;2023-04-25T11:49:59;1.65;;;0.50;;
37411;SDS011;23278;52.110;6.050;2023-04-25T11:52:40;1.70;;;0.60;;
37411;SDS011;23278;52.110;6.050;2023-04-25T11:55:08;2.28;;;0.80;;
37411;SDS011;23278;52.110;6.050;2023-04-25T11:57:42;2.08;;;0.60;;
37411;SDS011;23278;52.110;6.050;2023-04-25T12:00:13;1.33;;;0.43;;
37411;SDS011;23278;52.110;6.050;2023-04-25T12:02:43;3.08;;;0.70;;
37411;SDS011;23278;52.110;6.050;2023-04-25T12:05:11;3.38;;;0.60;;
37411;SDS011;23278;52.110;6.050;2023-04-25T12:07:38;4.35;;;0.73;;
37411;SDS011;23278;52.110;6.050;2023-04-25T12:10:08;2.15;;;0.60;;
37411;SDS011;23278;52.110;6.050;2023-04-25T12:12:36;1.73;;;0.68;;
37411;SDS011;23278;52.110;6.050;2023-04-25T12:15:15;2.25;;;0.93;;
37411;SDS011;23278;52.110;6.050;2023-04-25T12:17:45;2.63;;;0.68;;
37411;SDS011;23278;52.110;6.050;2023-04-25T12:20:13;3.15;;;0.73;;
37411;SDS011;23278;52.110;6.050;2023-04-25T12:22:41;3.95;;;0.85;;
37411;SDS011;23278;52.110;6.050;2023-04-25T12:25:11;3.55;;;0.70;;
37411;SDS011;23278;52.110;6.050;2023-04-25T12:27:38;2.20;;;0.60;;
37411;SDS011;23278;52.110;6.050;2023-04-25T12:30:07;2.53;;;0.80;;
37411;SDS011;23278;52.110;6.050;2023-04-25T12:32:36;3.28;;;0.80;;
37411;SDS011;23278;52.110;6.050;2023-04-25T12:35:03;2.95;;;0.57;;
37411;SDS011;23278;52.110;6.050;2023-04-25T12:37:31;1.35;;;0.60;;
37411;SDS011;23278;52.110;6.050;2023-04-25T12:39:57;6.45;;;1.27;;
37411;SDS011;23278;52.110;6.050;2023-04-25T12:42:23;2.65;;;0.60;;
37411;SDS011;23278;52.110;6.050;2023-04-25T12:44:49;1.52;;;0.50;;
37411;SDS011;23278;52.110;6.050;2023-04-25T12:47:15;2.63;;;0.60;;
37411;SDS011;23278;52.110;6.050;2023-04-25T12:49:41;2.63;;;0.60;;
37411;SDS011;23278;52.110;6.050;2023-04-25T12:52:07;4.05;;;0.70;;
37411;SDS011;23278;52.110;6.050;2023-04-25T12:54:33;2.75;;;0.40;;
37411;SDS011;23278;52.110;6.050;2023-04-25T12:56:59;1.63;;;0.40;;
37411;SDS011;23278;52.110;6.050;2023-04-25T12:59:28;4.68;;;0.93;;
37411;SDS011;23278;52.110;6.050;2023-04-25T13:01:53;2.05;;;0.75;;
37411;SDS011;23278;52.110;6.050;2023-04-25T13:04:19;4.10;;;0.85;;
37411;SDS011;23278;52.110;6.050;2023-04-25T13:06:46;1.58;;;0.73;;
37411;SDS011;23278;52.110;6.050;2023-04-25T13:09:12;1.83;;;0.68;;
37411;SDS011;23278;52.110;6.050;2023-04-25T13:11:38;4.82;;;0.50;;
37411;SDS011;23278;52.110;6.050;2023-04-25T13:14:06;5.35;;;1.05;;
37411;SDS011;23278;52.110;6.050;2023-04-25T13:16:31;4.97;;;0.75;;
37411;SDS011;23278;52.110;6.050;2023-04-25T13:18:57;0.80;;;0.40;;
37411;SDS011;23278;52.110;6.050;2023-04-25T13:21:24;2.63;;;0.50;;
37411;SDS011;23278;52.110;6.050;2023-04-25T13:23:50;1.95;;;0.60;;
37411;SDS011;23278;52.110;6.050;2023-04-25T13:26:16;4.97;;;1.15;;
37411;SDS011;23278;52.110;6.050;2023-04-25T13:28:42;2.85;;;0.50;;
37411;SDS011;23278;52.110;6.050;2023-04-25T13:31:08;3.60;;;0.60;;
37411;SDS011;23278;52.110;6.050;2023-04-25T13:33:34;1.50;;;0.50;;
37411;SDS011;23278;52.110;6.050;2023-04-25T13:36:00;2.00;;;0.68;;
37411;SDS011;23278;52.110;6.050;2023-04-25T13:38:26;3.00;;;0.77;;
37411;SDS011;23278;52.110;6.050;2023-04-25T13:40:52;3.55;;;0.60;;
37411;SDS011;23278;52.110;6.050;2023-04-25T13:43:19;1.48;;;0.60;;
37411;SDS011;23278;52.110;6.050;2023-04-25T13:45:47;2.72;;;0.52;;
37411;SDS011;23278;52.110;6.050;2023-04-25T13:48:17;4.03;;;1.38;;
37411;SDS011;23278;52.110;6.050;2023-04-25T13:50:44;1.42;;;0.60;;
37411;SDS011;23278;52.110;6.050;2023-04-25T13:53:10;2.28;;;0.63;;
37411;SDS011;23278;52.110;6.050;2023-04-25T13:55:37;2.05;;;0.65;;
37411;SDS011;23278;52.110;6.050;2023-04-25T13:58:03;1.00;;;0.40;;
37411;SDS011;23278;52.110;6.050;2023-04-25T14:00:36;4.13;;;0.95;;
37411;SDS011;23278;52.110;6.050;2023-04-25T14:03:08;4.30;;;1.08;;
37411;SDS011;23278;52.110;6.050;2023-04-25T14:05:35;3.78;;;0.85;;
37411;SDS011;23278;52.110;6.050;2023-04-25T14:08:08;3.15;;;0.90;;
37411;SDS011;23278;52.110;6.050;2023-04-25T14:10:34;2.42;;;0.60;;
37411;SDS011;23278;52.110;6.050;2023-04-25T14:13:01;3.20;;;0.70;;
37411;SDS011;23278;52.110;6.050;2023-04-25T14:15:28;2.55;;;0.73;;
37411;SDS011;23278;52.110;6.050;2023-04-25T14:17:55;4.28;;;0.90;;
37411;SDS011;23278;52.110;6.050;2023-04-25T14:20:21;2.53;;;0.52;;
37411;SDS011;23278;52.110;6.050;2023-04-25T14:22:49;4.05;;;0.60;;
37411;SDS011;23278;52.110;6.050;2023-04-25T14:25:15;3.85;;;0.60;;
37411;SDS011;23278;52.110;6.050;2023-04-25T14:27:41;2.38;;;0.70;;
37411;SDS011;23278;52.110;6.050;2023-04-25T14:30:07;3.28;;;0.80;;
37411;SDS011;23278;52.110;6.050;2023-04-25T14:32:34;2.45;;;0.60;;
37411;SDS011;23278;52.110;6.050;2023-04-25T14:35:00;2.72;;;0.88;;
37411;SDS011;23278;52.110;6.050;2023-04-25T14:37:26;3.38;;;0.80;;
37411;SDS011;23278;52.110;6.050;2023-04-25T14:39:52;2.90;;;1.05;;
37411;SDS011;23278;52.110;6.050;2023-04-25T14:42:18;1.65;;;0.65;;
37411;SDS011;23278;52.110;6.050;2023-04-25T14:44:44;3.35;;;0.88;;
37411;SDS011;23278;52.110;6.050;2023-04-25T14:47:10;3.00;;;0.77;;
37411;SDS011;23278;52.110;6.050;2023-04-25T14:49:36;2.95;;;0.70;;
37411;SDS011;23278;52.110;6.050;2023-04-25T14:52:02;3.03;;;0.60;;
37411;SDS011;23278;52.110;6.050;2023-04-25T14:54:28;1.45;;;0.60;;
37411;SDS011;23278;52.110;6.050;2023-04-25T14:56:54;4.00;;;0.70;;
37411;SDS011;23278;52.110;6.050;2023-04-25T14:59:20;2.05;;;0.70;;
37411;SDS011;23278;52.110;6.050;2023-04-25T15:01:46;2.40;;;0.60;;
37411;SDS011;23278;52.110;6.050;2023-04-25T15:04:12;2.10;;;0.75;;
37411;SDS011;23278;52.110;6.050;2023-04-25T15:06:39;5.30;;;1.48;;